Terminal Aerodrome Forecast
Issued by NWS

Home | Current Version | Previous Version | Text Only | Print | Product List | Glossary On
Versions: 1 2 3 4 5 6 7 8 9 10 11 12 13 14 15 16 17 18
000
FTUS43 KDMX 221730
TAFMCW
TAF
KMCW 221730Z 2218/2318 16015G22KT P6SM SCT060
     FM222300 16013KT P6SM FEW035
     FM230500 19010KT 4SM -SHRA BR SCT010 OVC020
     FM231400 26008KT P6SM FEW015=

USA.gov is the U.S. government's official web portal to all federal, state and local government web resources and services.